sensor_id;sensor_type;location;lat;lon;timestamp;temperature;humidity
12700;DHT22;6414;49.570;6.060;2023-11-21T00:02:27;7.30;99.90
12700;DHT22;6414;49.570;6.060;2023-11-21T00:05:13;7.30;99.90
12700;DHT22;6414;49.570;6.060;2023-11-21T00:08:01;7.30;99.90
12700;DHT22;6414;49.570;6.060;2023-11-21T00:10:47;7.30;99.90
12700;DHT22;6414;49.570;6.060;2023-11-21T00:13:33;7.30;99.90
12700;DHT22;6414;49.570;6.060;2023-11-21T00:16:20;7.20;99.90
12700;DHT22;6414;49.570;6.060;2023-11-21T00:19:07;7.20;99.90
12700;DHT22;6414;49.570;6.060;2023-11-21T00:21:53;7.20;99.90
12700;DHT22;6414;49.570;6.060;2023-11-21T00:24:39;7.20;99.90
12700;DHT22;6414;49.570;6.060;2023-11-21T00:27:26;7.20;99.90
12700;DHT22;6414;49.570;6.060;2023-11-21T00:30:12;7.20;99.90
12700;DHT22;6414;49.570;6.060;2023-11-21T00:32:58;7.20;99.90
12700;DHT22;6414;49.570;6.060;2023-11-21T00:35:44;7.20;99.90
12700;DHT22;6414;49.570;6.060;2023-11-21T00:38:30;7.20;99.90
12700;DHT22;6414;49.570;6.060;2023-11-21T00:41:15;7.20;99.90
12700;DHT22;6414;49.570;6.060;2023-11-21T00:44:01;7.20;99.90
12700;DHT22;6414;49.570;6.060;2023-11-21T00:46:48;7.20;99.90
12700;DHT22;6414;49.570;6.060;2023-11-21T00:49:34;7.10;99.90
12700;DHT22;6414;49.570;6.060;2023-11-21T00:52:20;7.20;99.90
12700;DHT22;6414;49.570;6.060;2023-11-21T00:55:06;7.20;99.90
12700;DHT22;6414;49.570;6.060;2023-11-21T00:57:52;7.10;99.90
12700;DHT22;6414;49.570;6.060;2023-11-21T01:00:38;7.10;99.90
12700;DHT22;6414;49.570;6.060;2023-11-21T01:03:27;7.10;99.90
12700;DHT22;6414;49.570;6.060;2023-11-21T01:06:14;7.10;99.90
12700;DHT22;6414;49.570;6.060;2023-11-21T01:09:01;7.10;99.90
12700;DHT22;6414;49.570;6.060;2023-11-21T01:11:48;7.10;99.90
12700;DHT22;6414;49.570;6.060;2023-11-21T01:14:34;7.10;99.90
12700;DHT22;6414;49.570;6.060;2023-11-21T01:17:20;7.10;99.90
12700;DHT22;6414;49.570;6.060;2023-11-21T01:20:06;7.10;99.90
12700;DHT22;6414;49.570;6.060;2023-11-21T01:22:58;7.10;99.90
12700;DHT22;6414;49.570;6.060;2023-11-21T01:25:44;7.10;99.90
12700;DHT22;6414;49.570;6.060;2023-11-21T01:28:30;7.10;99.90
12700;DHT22;6414;49.570;6.060;2023-11-21T01:31:17;7.10;99.90
12700;DHT22;6414;49.570;6.060;2023-11-21T01:34:03;7.20;99.90
12700;DHT22;6414;49.570;6.060;2023-11-21T01:36:49;7.20;99.90
12700;DHT22;6414;49.570;6.060;2023-11-21T01:39:35;7.20;99.90
12700;DHT22;6414;49.570;6.060;2023-11-21T01:42:21;7.20;99.90
12700;DHT22;6414;49.570;6.060;2023-11-21T01:45:07;7.30;99.90
12700;DHT22;6414;49.570;6.060;2023-11-21T01:47:54;7.20;99.90
12700;DHT22;6414;49.570;6.060;2023-11-21T01:50:41;7.20;99.90
12700;DHT22;6414;49.570;6.060;2023-11-21T01:53:27;7.10;99.90
12700;DHT22;6414;49.570;6.060;2023-11-21T01:56:13;7.10;99.90
12700;DHT22;6414;49.570;6.060;2023-11-21T01:58:59;7.10;99.90
12700;DHT22;6414;49.570;6.060;2023-11-21T02:01:45;7.10;99.90
12700;DHT22;6414;49.570;6.060;2023-11-21T02:04:32;7.10;99.90
12700;DHT22;6414;49.570;6.060;2023-11-21T02:07:17;7.10;99.90
12700;DHT22;6414;49.570;6.060;2023-11-21T02:10:04;7.10;99.90
12700;DHT22;6414;49.570;6.060;2023-11-21T02:12:50;7.10;99.90
12700;DHT22;6414;49.570;6.060;2023-11-21T02:15:36;7.10;99.90
12700;DHT22;6414;49.570;6.060;2023-11-21T02:18:22;7.10;99.90
12700;DHT22;6414;49.570;6.060;2023-11-21T02:21:08;7.00;99.90
12700;DHT22;6414;49.570;6.060;2023-11-21T02:23:54;7.00;99.90
12700;DHT22;6414;49.570;6.060;2023-11-21T02:26:40;7.00;99.90
12700;DHT22;6414;49.570;6.060;2023-11-21T02:29:26;7.00;99.90
12700;DHT22;6414;49.570;6.060;2023-11-21T02:32:12;7.00;99.90
12700;DHT22;6414;49.570;6.060;2023-11-21T02:34:58;7.00;99.90
12700;DHT22;6414;49.570;6.060;2023-11-21T02:37:44;6.90;99.90
12700;DHT22;6414;49.570;6.060;2023-11-21T02:40:31;6.90;99.90
12700;DHT22;6414;49.570;6.060;2023-11-21T02:43:18;6.90;99.90
12700;DHT22;6414;49.570;6.060;2023-11-21T02:46:04;6.90;99.90
12700;DHT22;6414;49.570;6.060;2023-11-21T02:48:50;6.80;99.90
12700;DHT22;6414;49.570;6.060;2023-11-21T02:51:36;6.80;99.90
12700;DHT22;6414;49.570;6.060;2023-11-21T02:54:22;6.90;99.90
12700;DHT22;6414;49.570;6.060;2023-11-21T02:57:08;6.90;99.90
12700;DHT22;6414;49.570;6.060;2023-11-21T02:59:54;6.80;99.90
12700;DHT22;6414;49.570;6.060;2023-11-21T03:02:41;6.80;99.90
12700;DHT22;6414;49.570;6.060;2023-11-21T03:05:27;6.90;99.90
12700;DHT22;6414;49.570;6.060;2023-11-21T03:08:13;6.90;99.90
12700;DHT22;6414;49.570;6.060;2023-11-21T03:11:00;6.80;99.90
12700;DHT22;6414;49.570;6.060;2023-11-21T03:13:46;6.80;99.90
12700;DHT22;6414;49.570;6.060;2023-11-21T03:16:32;6.80;99.90
12700;DHT22;6414;49.570;6.060;2023-11-21T03:19:19;6.80;99.90
12700;DHT22;6414;49.570;6.060;2023-11-21T03:22:05;6.80;99.90
12700;DHT22;6414;49.570;6.060;2023-11-21T03:24:51;6.80;99.90
12700;DHT22;6414;49.570;6.060;2023-11-21T03:27:37;6.80;99.90
12700;DHT22;6414;49.570;6.060;2023-11-21T03:30:23;6.80;99.90
12700;DHT22;6414;49.570;6.060;2023-11-21T03:33:09;6.70;99.90
12700;DHT22;6414;49.570;6.060;2023-11-21T03:35:55;6.70;99.90
12700;DHT22;6414;49.570;6.060;2023-11-21T03:38:41;6.70;99.90
12700;DHT22;6414;49.570;6.060;2023-11-21T03:41:27;6.70;99.90
12700;DHT22;6414;49.570;6.060;2023-11-21T03:44:14;6.70;99.90
12700;DHT22;6414;49.570;6.060;2023-11-21T03:47:00;6.70;99.90
12700;DHT22;6414;49.570;6.060;2023-11-21T03:49:47;6.70;99.90
12700;DHT22;6414;49.570;6.060;2023-11-21T03:52:33;6.70;99.90
12700;DHT22;6414;49.570;6.060;2023-11-21T03:55:19;6.60;99.90
12700;DHT22;6414;49.570;6.060;2023-11-21T03:58:05;6.70;99.90
12700;DHT22;6414;49.570;6.060;2023-11-21T04:00:52;6.70;99.90
12700;DHT22;6414;49.570;6.060;2023-11-21T04:03:38;6.70;99.90
12700;DHT22;6414;49.570;6.060;2023-11-21T04:06:25;6.70;99.90
12700;DHT22;6414;49.570;6.060;2023-11-21T04:09:11;6.60;99.90
12700;DHT22;6414;49.570;6.060;2023-11-21T04:11:56;6.70;99.90
12700;DHT22;6414;49.570;6.060;2023-11-21T04:14:42;6.60;99.90
12700;DHT22;6414;49.570;6.060;2023-11-21T04:17:29;6.60;99.90
12700;DHT22;6414;49.570;6.060;2023-11-21T04:20:15;6.60;99.90
12700;DHT22;6414;49.570;6.060;2023-11-21T04:23:01;6.60;99.90
12700;DHT22;6414;49.570;6.060;2023-11-21T04:25:47;6.60;99.90
12700;DHT22;6414;49.570;6.060;2023-11-21T04:28:33;6.60;99.90
12700;DHT22;6414;49.570;6.060;2023-11-21T04:31:19;6.60;99.90
12700;DHT22;6414;49.570;6.060;2023-11-21T04:34:06;6.60;99.90
12700;DHT22;6414;49.570;6.060;2023-11-21T04:36:52;6.70;99.90
12700;DHT22;6414;49.570;6.060;2023-11-21T04:39:38;6.70;99.90
12700;DHT22;6414;49.570;6.060;2023-11-21T04:42:24;6.70;99.90
12700;DHT22;6414;49.570;6.060;2023-11-21T04:45:10;6.70;99.90
12700;DHT22;6414;49.570;6.060;2023-11-21T04:47:57;6.70;99.90
12700;DHT22;6414;49.570;6.060;2023-11-21T04:50:43;6.70;99.90
12700;DHT22;6414;49.570;6.060;2023-11-21T04:53:30;6.60;99.90
12700;DHT22;6414;49.570;6.060;2023-11-21T04:56:16;6.60;99.90
12700;DHT22;6414;49.570;6.060;2023-11-21T04:59:02;6.60;99.90
12700;DHT22;6414;49.570;6.060;2023-11-21T05:01:49;6.60;99.90
12700;DHT22;6414;49.570;6.060;2023-11-21T05:04:35;6.60;99.90
12700;DHT22;6414;49.570;6.060;2023-11-21T05:07:21;6.70;99.90
12700;DHT22;6414;49.570;6.060;2023-11-21T05:10:07;6.70;99.90
12700;DHT22;6414;49.570;6.060;2023-11-21T05:12:53;6.60;99.90
12700;DHT22;6414;49.570;6.060;2023-11-21T05:15:39;6.60;99.90
12700;DHT22;6414;49.570;6.060;2023-11-21T05:18:26;6.60;99.90
12700;DHT22;6414;49.570;6.060;2023-11-21T05:21:14;6.60;99.90
12700;DHT22;6414;49.570;6.060;2023-11-21T05:24:00;6.60;99.90
12700;DHT22;6414;49.570;6.060;2023-11-21T05:26:47;6.60;99.90
12700;DHT22;6414;49.570;6.060;2023-11-21T05:29:33;6.60;99.90
12700;DHT22;6414;49.570;6.060;2023-11-21T05:32:20;6.60;99.90
12700;DHT22;6414;49.570;6.060;2023-11-21T05:35:06;6.60;99.90
12700;DHT22;6414;49.570;6.060;2023-11-21T05:37:52;6.60;99.90
12700;DHT22;6414;49.570;6.060;2023-11-21T05:40:38;6.50;99.90
12700;DHT22;6414;49.570;6.060;2023-11-21T05:43:25;6.50;99.90
12700;DHT22;6414;49.570;6.060;2023-11-21T05:46:11;6.60;99.90
12700;DHT22;6414;49.570;6.060;2023-11-21T05:48:57;6.60;99.90
12700;DHT22;6414;49.570;6.060;2023-11-21T05:51:43;6.60;99.90
12700;DHT22;6414;49.570;6.060;2023-11-21T05:54:29;6.60;99.90
12700;DHT22;6414;49.570;6.060;2023-11-21T05:57:15;6.60;99.90
12700;DHT22;6414;49.570;6.060;2023-11-21T06:00:05;6.60;99.90
12700;DHT22;6414;49.570;6.060;2023-11-21T06:02:57;6.60;99.90
12700;DHT22;6414;49.570;6.060;2023-11-21T06:05:42;6.60;99.90
12700;DHT22;6414;49.570;6.060;2023-11-21T06:08:30;6.60;99.90
12700;DHT22;6414;49.570;6.060;2023-11-21T06:11:16;6.60;99.90
12700;DHT22;6414;49.570;6.060;2023-11-21T06:14:02;6.60;99.90
12700;DHT22;6414;49.570;6.060;2023-11-21T06:16:47;6.50;99.90
12700;DHT22;6414;49.570;6.060;2023-11-21T06:19:34;6.60;99.90
12700;DHT22;6414;49.570;6.060;2023-11-21T06:22:20;6.60;99.90
12700;DHT22;6414;49.570;6.060;2023-11-21T06:25:06;6.60;99.90
12700;DHT22;6414;49.570;6.060;2023-11-21T06:27:53;6.60;99.90
12700;DHT22;6414;49.570;6.060;2023-11-21T06:30:39;6.60;99.90
12700;DHT22;6414;49.570;6.060;2023-11-21T06:33:25;6.60;99.90
12700;DHT22;6414;49.570;6.060;2023-11-21T06:36:11;6.60;99.90
12700;DHT22;6414;49.570;6.060;2023-11-21T06:38:57;6.70;99.90
12700;DHT22;6414;49.570;6.060;2023-11-21T06:41:44;6.60;99.90
12700;DHT22;6414;49.570;6.060;2023-11-21T06:44:30;6.60;99.90
12700;DHT22;6414;49.570;6.060;2023-11-21T06:47:16;6.70;99.90
12700;DHT22;6414;49.570;6.060;2023-11-21T06:50:01;6.70;99.90
12700;DHT22;6414;49.570;6.060;2023-11-21T06:52:47;6.60;99.90
12700;DHT22;6414;49.570;6.060;2023-11-21T06:55:34;6.60;99.90
12700;DHT22;6414;49.570;6.060;2023-11-21T06:58:20;6.60;99.90
12700;DHT22;6414;49.570;6.060;2023-11-21T07:01:06;6.70;99.90
12700;DHT22;6414;49.570;6.060;2023-11-21T07:03:52;6.70;99.90
12700;DHT22;6414;49.570;6.060;2023-11-21T07:06:39;6.70;99.90
12700;DHT22;6414;49.570;6.060;2023-11-21T07:09:25;6.70;99.90
12700;DHT22;6414;49.570;6.060;2023-11-21T07:12:10;6.70;99.90
12700;DHT22;6414;49.570;6.060;2023-11-21T07:14:57;6.70;99.90
12700;DHT22;6414;49.570;6.060;2023-11-21T07:17:43;6.70;99.90
12700;DHT22;6414;49.570;6.060;2023-11-21T07:20:29;6.70;99.90
12700;DHT22;6414;49.570;6.060;2023-11-21T07:23:15;6.70;99.90
12700;DHT22;6414;49.570;6.060;2023-11-21T07:26:01;6.70;99.90
12700;DHT22;6414;49.570;6.060;2023-11-21T07:28:47;6.70;99.90
12700;DHT22;6414;49.570;6.060;2023-11-21T07:31:33;6.70;99.90
12700;DHT22;6414;49.570;6.060;2023-11-21T07:34:22;6.70;99.90
12700;DHT22;6414;49.570;6.060;2023-11-21T07:37:08;6.70;99.90
12700;DHT22;6414;49.570;6.060;2023-11-21T07:39:57;6.70;99.90
12700;DHT22;6414;49.570;6.060;2023-11-21T07:42:43;6.70;99.90
12700;DHT22;6414;49.570;6.060;2023-11-21T07:45:29;6.70;99.90
12700;DHT22;6414;49.570;6.060;2023-11-21T07:48:15;6.70;99.90
12700;DHT22;6414;49.570;6.060;2023-11-21T07:51:02;6.70;99.90
12700;DHT22;6414;49.570;6.060;2023-11-21T07:53:47;6.70;99.90
12700;DHT22;6414;49.570;6.060;2023-11-21T07:56:33;6.70;99.90
12700;DHT22;6414;49.570;6.060;2023-11-21T07:59:19;6.70;99.90
12700;DHT22;6414;49.570;6.060;2023-11-21T08:02:05;6.80;99.90
12700;DHT22;6414;49.570;6.060;2023-11-21T08:04:51;6.80;99.90
12700;DHT22;6414;49.570;6.060;2023-11-21T08:07:37;6.80;99.90
12700;DHT22;6414;49.570;6.060;2023-11-21T08:10:23;6.80;99.90
12700;DHT22;6414;49.570;6.060;2023-11-21T08:13:10;6.80;99.90
12700;DHT22;6414;49.570;6.060;2023-11-21T08:15:56;6.80;99.90
12700;DHT22;6414;49.570;6.060;2023-11-21T08:18:42;6.90;99.90
12700;DHT22;6414;49.570;6.060;2023-11-21T08:21:28;6.90;99.90
12700;DHT22;6414;49.570;6.060;2023-11-21T08:24:14;6.90;99.90
12700;DHT22;6414;49.570;6.060;2023-11-21T08:27:00;6.90;99.90
12700;DHT22;6414;49.570;6.060;2023-11-21T08:29:45;6.90;99.90
12700;DHT22;6414;49.570;6.060;2023-11-21T08:32:31;7.00;99.90
12700;DHT22;6414;49.570;6.060;2023-11-21T08:35:20;7.00;99.90
12700;DHT22;6414;49.570;6.060;2023-11-21T08:38:07;7.10;99.90
12700;DHT22;6414;49.570;6.060;2023-11-21T08:40:53;7.10;99.90
12700;DHT22;6414;49.570;6.060;2023-11-21T08:43:39;7.10;99.90
12700;DHT22;6414;49.570;6.060;2023-11-21T08:46:25;7.20;99.90
12700;DHT22;6414;49.570;6.060;2023-11-21T08:49:11;7.20;99.90
12700;DHT22;6414;49.570;6.060;2023-11-21T08:51:57;7.20;99.90
12700;DHT22;6414;49.570;6.060;2023-11-21T08:54:44;7.30;99.90
12700;DHT22;6414;49.570;6.060;2023-11-21T08:57:30;7.20;99.90
12700;DHT22;6414;49.570;6.060;2023-11-21T09:00:16;7.30;99.90
12700;DHT22;6414;49.570;6.060;2023-11-21T09:03:02;7.40;99.90
12700;DHT22;6414;49.570;6.060;2023-11-21T09:05:49;7.40;99.90
12700;DHT22;6414;49.570;6.060;2023-11-21T09:08:35;7.40;99.90
12700;DHT22;6414;49.570;6.060;2023-11-21T09:11:21;7.50;99.90
12700;DHT22;6414;49.570;6.060;2023-11-21T09:14:08;7.60;99.90
12700;DHT22;6414;49.570;6.060;2023-11-21T09:16:54;7.60;99.90
12700;DHT22;6414;49.570;6.060;2023-11-21T09:19:40;7.70;99.90
12700;DHT22;6414;49.570;6.060;2023-11-21T09:22:26;7.70;99.90
12700;DHT22;6414;49.570;6.060;2023-11-21T09:25:12;7.60;99.90
12700;DHT22;6414;49.570;6.060;2023-11-21T09:27:58;7.60;99.90
12700;DHT22;6414;49.570;6.060;2023-11-21T09:30:44;7.60;99.90
12700;DHT22;6414;49.570;6.060;2023-11-21T09:33:30;7.60;99.90
12700;DHT22;6414;49.570;6.060;2023-11-21T09:36:16;7.70;99.90
12700;DHT22;6414;49.570;6.060;2023-11-21T09:39:03;7.70;99.90
12700;DHT22;6414;49.570;6.060;2023-11-21T09:41:57;7.80;99.90
12700;DHT22;6414;49.570;6.060;2023-11-21T09:45:00;7.80;99.90
12700;DHT22;6414;49.570;6.060;2023-11-21T09:47:40;7.90;99.90
12700;DHT22;6414;49.570;6.060;2023-11-21T09:50:26;7.90;99.90
12700;DHT22;6414;49.570;6.060;2023-11-21T09:53:21;8.00;99.90
12700;DHT22;6414;49.570;6.060;2023-11-21T09:56:03;8.00;99.90
12700;DHT22;6414;49.570;6.060;2023-11-21T09:58:53;8.10;99.90
12700;DHT22;6414;49.570;6.060;2023-11-21T10:01:38;8.20;99.90
12700;DHT22;6414;49.570;6.060;2023-11-21T10:04:25;8.30;99.90
12700;DHT22;6414;49.570;6.060;2023-11-21T10:07:10;8.30;99.90
12700;DHT22;6414;49.570;6.060;2023-11-21T10:09:56;8.40;99.90
12700;DHT22;6414;49.570;6.060;2023-11-21T10:12:42;8.30;99.90
12700;DHT22;6414;49.570;6.060;2023-11-21T10:15:28;8.20;99.90
12700;DHT22;6414;49.570;6.060;2023-11-21T10:18:14;8.20;99.90
12700;DHT22;6414;49.570;6.060;2023-11-21T10:21:00;8.30;99.90
12700;DHT22;6414;49.570;6.060;2023-11-21T10:23:46;8.30;99.90
12700;DHT22;6414;49.570;6.060;2023-11-21T10:26:32;8.40;99.90
12700;DHT22;6414;49.570;6.060;2023-11-21T10:29:18;8.30;99.90
12700;DHT22;6414;49.570;6.060;2023-11-21T10:32:04;8.20;99.90
12700;DHT22;6414;49.570;6.060;2023-11-21T10:34:56;8.30;99.90
12700;DHT22;6414;49.570;6.060;2023-11-21T10:37:42;8.40;99.90
12700;DHT22;6414;49.570;6.060;2023-11-21T10:40:27;8.40;99.90
12700;DHT22;6414;49.570;6.060;2023-11-21T10:43:14;8.60;99.90
12700;DHT22;6414;49.570;6.060;2023-11-21T10:46:00;8.70;99.90
12700;DHT22;6414;49.570;6.060;2023-11-21T10:48:46;8.70;99.90
12700;DHT22;6414;49.570;6.060;2023-11-21T10:51:31;8.70;99.90
12700;DHT22;6414;49.570;6.060;2023-11-21T10:54:18;8.70;99.90
12700;DHT22;6414;49.570;6.060;2023-11-21T10:57:03;8.70;99.90
12700;DHT22;6414;49.570;6.060;2023-11-21T10:59:49;8.70;99.90
12700;DHT22;6414;49.570;6.060;2023-11-21T11:02:35;8.80;99.90
12700;DHT22;6414;49.570;6.060;2023-11-21T11:05:21;8.70;99.90
12700;DHT22;6414;49.570;6.060;2023-11-21T11:08:08;8.70;99.90
12700;DHT22;6414;49.570;6.060;2023-11-21T11:10:52;8.80;99.90
12700;DHT22;6414;49.570;6.060;2023-11-21T11:13:39;8.80;99.90
12700;DHT22;6414;49.570;6.060;2023-11-21T11:16:24;8.80;99.90
12700;DHT22;6414;49.570;6.060;2023-11-21T11:19:10;8.80;99.90
12700;DHT22;6414;49.570;6.060;2023-11-21T11:30:53;9.00;99.90
12700;DHT22;6414;49.570;6.060;2023-11-21T11:33:45;8.90;99.90
12700;DHT22;6414;49.570;6.060;2023-11-21T11:36:48;8.90;99.90
12700;DHT22;6414;49.570;6.060;2023-11-21T11:39:37;8.90;99.90
12700;DHT22;6414;49.570;6.060;2023-11-21T11:42:22;9.10;99.90
12700;DHT22;6414;49.570;6.060;2023-11-21T11:45:17;9.10;99.90
12700;DHT22;6414;49.570;6.060;2023-11-21T11:48:02;9.00;99.90
12700;DHT22;6414;49.570;6.060;2023-11-21T11:51:09;9.00;99.90
12700;DHT22;6414;49.570;6.060;2023-11-21T11:53:52;9.10;99.90
12700;DHT22;6414;49.570;6.060;2023-11-21T11:56:38;9.10;99.90
12700;DHT22;6414;49.570;6.060;2023-11-21T11:59:23;9.00;99.90
12700;DHT22;6414;49.570;6.060;2023-11-21T12:02:09;9.00;99.90
12700;DHT22;6414;49.570;6.060;2023-11-21T12:04:55;9.10;99.90
12700;DHT22;6414;49.570;6.060;2023-11-21T12:07:47;9.20;99.90
12700;DHT22;6414;49.570;6.060;2023-11-21T12:10:35;9.20;99.90
12700;DHT22;6414;49.570;6.060;2023-11-21T12:13:18;9.20;99.90
12700;DHT22;6414;49.570;6.060;2023-11-21T12:16:04;9.10;99.90
12700;DHT22;6414;49.570;6.060;2023-11-21T12:18:49;9.10;99.90
12700;DHT22;6414;49.570;6.060;2023-11-21T12:21:36;9.20;99.90
12700;DHT22;6414;49.570;6.060;2023-11-21T12:24:21;9.20;99.90
12700;DHT22;6414;49.570;6.060;2023-11-21T12:27:07;9.00;99.90
12700;DHT22;6414;49.570;6.060;2023-11-21T12:29:53;9.00;99.90
12700;DHT22;6414;49.570;6.060;2023-11-21T12:32:39;9.00;99.90
12700;DHT22;6414;49.570;6.060;2023-11-21T12:35:25;9.10;99.90
12700;DHT22;6414;49.570;6.060;2023-11-21T12:38:11;9.10;99.90
12700;DHT22;6414;49.570;6.060;2023-11-21T12:40:56;9.10;99.90
12700;DHT22;6414;49.570;6.060;2023-11-21T12:43:43;9.20;99.90
12700;DHT22;6414;49.570;6.060;2023-11-21T12:46:28;9.20;99.90
12700;DHT22;6414;49.570;6.060;2023-11-21T12:49:17;9.20;99.90
12700;DHT22;6414;49.570;6.060;2023-11-21T12:52:03;9.30;99.90
12700;DHT22;6414;49.570;6.060;2023-11-21T12:54:49;9.10;99.90
12700;DHT22;6414;49.570;6.060;2023-11-21T12:57:34;9.20;99.90
12700;DHT22;6414;49.570;6.060;2023-11-21T13:00:27;9.30;99.90
12700;DHT22;6414;49.570;6.060;2023-11-21T13:03:09;9.40;99.90
12700;DHT22;6414;49.570;6.060;2023-11-21T13:05:55;9.40;99.90
12700;DHT22;6414;49.570;6.060;2023-11-21T13:08:41;9.40;99.90
12700;DHT22;6414;49.570;6.060;2023-11-21T13:11:26;9.40;99.90
12700;DHT22;6414;49.570;6.060;2023-11-21T13:14:12;9.40;99.90
12700;DHT22;6414;49.570;6.060;2023-11-21T13:16:58;9.30;99.90
12700;DHT22;6414;49.570;6.060;2023-11-21T13:19:44;9.40;99.90
12700;DHT22;6414;49.570;6.060;2023-11-21T13:22:30;9.50;99.90
12700;DHT22;6414;49.570;6.060;2023-11-21T13:25:16;9.50;99.90
12700;DHT22;6414;49.570;6.060;2023-11-21T13:28:02;9.50;99.90
12700;DHT22;6414;49.570;6.060;2023-11-21T13:30:48;9.30;99.90
12700;DHT22;6414;49.570;6.060;2023-11-21T13:33:34;9.30;99.90
12700;DHT22;6414;49.570;6.060;2023-11-21T13:36:20;9.30;99.90
12700;DHT22;6414;49.570;6.060;2023-11-21T13:39:06;9.20;99.90
12700;DHT22;6414;49.570;6.060;2023-11-21T13:41:52;9.30;99.90
12700;DHT22;6414;49.570;6.060;2023-11-21T13:44:38;9.40;99.90
12700;DHT22;6414;49.570;6.060;2023-11-21T13:47:24;9.40;99.90
12700;DHT22;6414;49.570;6.060;2023-11-21T13:50:10;9.30;99.90
12700;DHT22;6414;49.570;6.060;2023-11-21T13:52:57;9.20;99.90
12700;DHT22;6414;49.570;6.060;2023-11-21T13:55:46;9.20;99.90
12700;DHT22;6414;49.570;6.060;2023-11-21T13:58:28;9.20;99.90
12700;DHT22;6414;49.570;6.060;2023-11-21T14:01:21;9.20;99.90
12700;DHT22;6414;49.570;6.060;2023-11-21T14:04:15;9.20;99.90
12700;DHT22;6414;49.570;6.060;2023-11-21T14:07:03;9.20;99.90
12700;DHT22;6414;49.570;6.060;2023-11-21T14:09:49;9.20;99.90
12700;DHT22;6414;49.570;6.060;2023-11-21T14:12:35;9.20;99.90
12700;DHT22;6414;49.570;6.060;2023-11-21T14:15:21;9.20;99.90
12700;DHT22;6414;49.570;6.060;2023-11-21T14:18:07;9.20;99.90
12700;DHT22;6414;49.570;6.060;2023-11-21T14:20:52;9.20;99.90
12700;DHT22;6414;49.570;6.060;2023-11-21T14:23:38;9.20;99.90
12700;DHT22;6414;49.570;6.060;2023-11-21T14:26:25;9.10;99.90
12700;DHT22;6414;49.570;6.060;2023-11-21T14:29:15;9.10;99.90
12700;DHT22;6414;49.570;6.060;2023-11-21T14:31:57;9.10;99.90
12700;DHT22;6414;49.570;6.060;2023-11-21T14:34:43;9.00;99.90
12700;DHT22;6414;49.570;6.060;2023-11-21T14:37:31;8.90;99.90
12700;DHT22;6414;49.570;6.060;2023-11-21T14:40:17;8.90;99.90
12700;DHT22;6414;49.570;6.060;2023-11-21T14:43:03;8.90;99.90
12700;DHT22;6414;49.570;6.060;2023-11-21T14:45:51;8.80;99.90
12700;DHT22;6414;49.570;6.060;2023-11-21T14:48:37;8.80;99.90
12700;DHT22;6414;49.570;6.060;2023-11-21T14:51:24;8.80;99.90
12700;DHT22;6414;49.570;6.060;2023-11-21T14:54:18;8.80;99.90
12700;DHT22;6414;49.570;6.060;2023-11-21T14:57:04;8.80;99.90
12700;DHT22;6414;49.570;6.060;2023-11-21T14:59:50;8.80;99.90
12700;DHT22;6414;49.570;6.060;2023-11-21T15:02:37;8.80;99.90
12700;DHT22;6414;49.570;6.060;2023-11-21T15:05:35;8.80;99.90
12700;DHT22;6414;49.570;6.060;2023-11-21T15:08:23;8.80;99.90
12700;DHT22;6414;49.570;6.060;2023-11-21T15:11:14;8.80;99.90
12700;DHT22;6414;49.570;6.060;2023-11-21T15:14:00;8.70;99.90
12700;DHT22;6414;49.570;6.060;2023-11-21T15:16:46;8.70;99.90
12700;DHT22;6414;49.570;6.060;2023-11-21T15:19:32;8.70;99.90
12700;DHT22;6414;49.570;6.060;2023-11-21T15:22:17;8.60;99.90
12700;DHT22;6414;49.570;6.060;2023-11-21T15:25:03;8.50;99.90
12700;DHT22;6414;49.570;6.060;2023-11-21T15:27:49;8.50;99.90
12700;DHT22;6414;49.570;6.060;2023-11-21T15:30:34;8.40;99.90
12700;DHT22;6414;49.570;6.060;2023-11-21T15:33:20;8.40;99.90
12700;DHT22;6414;49.570;6.060;2023-11-21T15:36:06;8.50;99.90
12700;DHT22;6414;49.570;6.060;2023-11-21T15:38:52;8.40;99.90
12700;DHT22;6414;49.570;6.060;2023-11-21T15:41:38;8.30;99.90
12700;DHT22;6414;49.570;6.060;2023-11-21T15:44:24;8.20;99.90
12700;DHT22;6414;49.570;6.060;2023-11-21T15:47:09;8.10;99.90
12700;DHT22;6414;49.570;6.060;2023-11-21T15:49:55;8.00;99.90
12700;DHT22;6414;49.570;6.060;2023-11-21T15:52:41;8.10;99.90
12700;DHT22;6414;49.570;6.060;2023-11-21T15:55:26;8.00;99.90
12700;DHT22;6414;49.570;6.060;2023-11-21T15:58:12;8.00;99.90
12700;DHT22;6414;49.570;6.060;2023-11-21T16:00:58;8.00;99.90
12700;DHT22;6414;49.570;6.060;2023-11-21T16:03:44;8.00;99.90
12700;DHT22;6414;49.570;6.060;2023-11-21T16:06:29;8.00;99.90
12700;DHT22;6414;49.570;6.060;2023-11-21T16:09:15;7.80;99.90
12700;DHT22;6414;49.570;6.060;2023-11-21T16:12:06;7.80;99.90
12700;DHT22;6414;49.570;6.060;2023-11-21T16:14:52;7.70;99.90
12700;DHT22;6414;49.570;6.060;2023-11-21T16:17:38;7.70;99.90
12700;DHT22;6414;49.570;6.060;2023-11-21T16:20:24;7.90;99.90
12700;DHT22;6414;49.570;6.060;2023-11-21T16:23:10;7.90;99.90
12700;DHT22;6414;49.570;6.060;2023-11-21T16:25:56;7.80;99.90
12700;DHT22;6414;49.570;6.060;2023-11-21T16:28:42;8.00;99.90
12700;DHT22;6414;49.570;6.060;2023-11-21T16:31:28;7.70;99.90
12700;DHT22;6414;49.570;6.060;2023-11-21T16:34:15;7.60;99.90
12700;DHT22;6414;49.570;6.060;2023-11-21T16:37:01;7.60;99.90
12700;DHT22;6414;49.570;6.060;2023-11-21T16:39:47;7.60;99.90
12700;DHT22;6414;49.570;6.060;2023-11-21T16:42:33;7.70;99.90
12700;DHT22;6414;49.570;6.060;2023-11-21T16:45:18;7.70;99.90
12700;DHT22;6414;49.570;6.060;2023-11-21T16:48:04;7.80;99.90
12700;DHT22;6414;49.570;6.060;2023-11-21T16:50:50;7.90;99.90
12700;DHT22;6414;49.570;6.060;2023-11-21T16:53:36;7.80;99.90
12700;DHT22;6414;49.570;6.060;2023-11-21T16:56:21;7.90;99.90
12700;DHT22;6414;49.570;6.060;2023-11-21T16:59:07;7.90;99.90
12700;DHT22;6414;49.570;6.060;2023-11-21T17:01:53;8.00;99.90
12700;DHT22;6414;49.570;6.060;2023-11-21T17:04:39;8.10;99.90
12700;DHT22;6414;49.570;6.060;2023-11-21T17:07:25;8.10;99.90
12700;DHT22;6414;49.570;6.060;2023-11-21T17:10:12;8.20;99.90
12700;DHT22;6414;49.570;6.060;2023-11-21T17:12:57;8.20;99.90
12700;DHT22;6414;49.570;6.060;2023-11-21T17:15:43;8.10;99.90
12700;DHT22;6414;49.570;6.060;2023-11-21T17:18:29;8.00;99.90
12700;DHT22;6414;49.570;6.060;2023-11-21T17:21:15;8.10;99.90
12700;DHT22;6414;49.570;6.060;2023-11-21T17:24:01;8.10;99.90
12700;DHT22;6414;49.570;6.060;2023-11-21T17:26:46;8.10;99.90
12700;DHT22;6414;49.570;6.060;2023-11-21T17:29:32;8.00;99.90
12700;DHT22;6414;49.570;6.060;2023-11-21T17:32:18;7.80;99.90
12700;DHT22;6414;49.570;6.060;2023-11-21T17:35:04;7.70;99.90
12700;DHT22;6414;49.570;6.060;2023-11-21T17:37:49;7.70;99.90
12700;DHT22;6414;49.570;6.060;2023-11-21T17:40:35;7.90;99.90
12700;DHT22;6414;49.570;6.060;2023-11-21T17:43:21;8.00;99.90
12700;DHT22;6414;49.570;6.060;2023-11-21T17:46:10;8.10;99.90
12700;DHT22;6414;49.570;6.060;2023-11-21T17:48:59;8.00;99.90
12700;DHT22;6414;49.570;6.060;2023-11-21T17:51:45;8.00;99.90
12700;DHT22;6414;49.570;6.060;2023-11-21T17:54:30;8.00;99.90
12700;DHT22;6414;49.570;6.060;2023-11-21T17:57:16;8.00;99.90
12700;DHT22;6414;49.570;6.060;2023-11-21T18:00:03;8.00;99.90
12700;DHT22;6414;49.570;6.060;2023-11-21T18:02:53;8.20;99.90
12700;DHT22;6414;49.570;6.060;2023-11-21T18:05:39;8.20;99.90
12700;DHT22;6414;49.570;6.060;2023-11-21T18:08:26;8.20;99.90
12700;DHT22;6414;49.570;6.060;2023-11-21T18:11:12;8.20;99.90
12700;DHT22;6414;49.570;6.060;2023-11-21T18:13:58;8.00;99.90
12700;DHT22;6414;49.570;6.060;2023-11-21T18:16:44;8.00;99.90